Pagina principale
METAR-TAF:

METAR-TAF

Aeroporti :

Aeroporto di Graz

Graz, Austria

latitudine: 47-00N, longitudine: 015-26E, altezza: 340 m

Osservazione

Il bollettino è stato emesso 38 minuti fa, alle 10:20 UTC
Vento 4 kt da sud/sud-est, variando fra est e sud/sud-ovest
Temperature 19°C
Umidità 30%
Pressione 1021 hPa
Visibilità 10 km o più
nessuna nube inferiore a 1500 m e nessun cumulonembo

METAR: LOWG 211020Z 15004KT 100V200 CAVOK 19/01 Q1021 NOSIG

Ora: 12:58 (10:58 UTC)

Previsione

Il bollettino è stato emesso 5 ore e 43 minuti fa, alle 05:15 UTC
Previsione valida dal 21 alle 06 UTC al 22 alle 06 UTC
Vento 2 kt da direzioni variabili
Visibilità 10 km o più
nessuna nube inferiore a 1500 m e nessun cumulonembo
Temporaneamente
dal 21 alle 11 UTC al 21 alle 17 UTC
Vento 8 kt da sud/sud-est
Visibilità 10 km o più
Poco nuvoloso ad un'altezza di 6500 ft

TAF: LOWG 210515Z 2106/2206 VRB02KT CAVOK TX22/2114Z TN05/2204Z TEMPO 2111/2117 15008KT 9999 FEW065

Osservazioni e previsioni meteorologiche di più di 4000 aeroporti (messaggi METAR e TAF).

Le stazioni disponibili sono rappresentate dai dischi gialli e rossi sulla carta.

Puntare il mouse per vedere il nome della stazione.

Clicca sopra per visualizzare le osservazioni e previsioni meteorologiche.

Per cambiare la mappa : fare clic sui pulsanti verdi con una croce nera per ingrandire, il pulsante verde con un trattino per diminuire, o sulla freccia verde per le mappe adiacenti.


METAR-TAF: